Alba Posse, Argentina
Current Conditions -  °F | °C
As of 1:00 PM on Sunday 25 Jan 2015 (Local Time) from SARP Reporting Station
Clear Clear  
Wind Chill: 88°   Ceiling: Unl
Heat Index: 90°   Visibility: 6mi
Dew Point: 66°   Wind: 3mph
Humidity: 49%   Direction: 270°W
Pressure: 29.88"   Gusts: NA
Location:  27.53°S, 54.72°W
Report Text: SARP 251600Z 27003KT CAVOK 31/19 Q1012
Loading
Personal Weather Stations






























Interactive Weather Map New forecast layout! Learn more

10-Day Weather Forecast

Advertisements
Track Severe Weather on mobile